Terminal Aerodrome Forecast
Issued by NWS

Home | Current Version | Previous Version | Text Only | Print | Product List | Glossary On
Versions: 1 2 3 4 5 6 7 8 9 10 11 12 13 14 15 16 17 18 19 20 21 22 23
315
FTUS43 KAPX 272340
TAFAPN
TAF
KAPN 272340Z 2800/2824 12008KT P6SM SCT070 OVC120
     FM280100 13005KT P6SM SCT070 BKN120
     FM280900 13004KT 6SM BR BKN030
     FM281100 15005KT 6SM BR BKN035
     FM281600 18009KT P6SM BKN090=

USA.gov is the U.S. government's official web portal to all federal, state and local government web resources and services.